Time;durP1;ratioP1;P1;durP2;ratioP2;P2;SDS_P1;SDS_P2;PMS_P1;PMS_P2;Temp;Humidity;BMP_temperature;BMP_pressure;BME280_temperature;BME280_humidity;BME280_pressure;Samples;Min_cycle;Max_cycle;Signal;HPM_P1;HPM_P2
2022/12/31 00:01:22;;;;;;;11.03;9.60;;;;;;;11.59;100.00;98540.53;4968293;28;20296;-80
2022/12/31 00:03:54;;;;;;;11.03;9.77;;;;;;;11.59;100.00;98522.81;4964092;28;20196;-80
2022/12/31 00:06:28;;;;;;;11.50;9.90;;;;;;;11.63;100.00;98518.94;4971339;28;20196;-80
2022/12/31 00:08:59;;;;;;;10.77;9.67;;;;;;;11.62;100.00;98538.47;4966471;28;20246;-80
2022/12/31 00:11:29;;;;;;;10.00;9.00;;;;;;;11.71;100.00;98534.25;5011333;28;20244;-81
2022/12/31 00:13:58;;;;;;;10.80;8.47;;;;;;;11.71;100.00;98542.22;5037451;28;20249;-80
2022/12/31 00:16:29;;;;;;;9.73;8.70;;;;;;;11.71;100.00;98531.59;5086325;28;20202;-80
2022/12/31 00:19:00;;;;;;;8.77;7.63;;;;;;;11.66;100.00;98525.81;4980624;28;20222;-80
2022/12/31 00:21:32;;;;;;;8.43;7.47;;;;;;;11.70;100.00;98512.19;5008526;28;20277;-80
2022/12/31 00:24:01;;;;;;;10.90;7.87;;;;;;;11.79;100.00;98523.06;5010721;28;20209;-80
2022/12/31 00:26:32;;;;;;;8.10;7.10;;;;;;;11.82;100.00;98523.66;5007912;28;20265;-80
2022/12/31 00:29:02;;;;;;;7.40;6.57;;;;;;;11.83;100.00;98520.06;5008682;28;20194;-80
2022/12/31 00:31:33;;;;;;;6.23;5.63;;;;;;;11.90;100.00;98520.41;5011194;28;20208;-80
2022/12/31 00:34:02;;;;;;;6.27;5.20;;;;;;;11.87;100.00;98520.63;5005863;28;20206;-80
2022/12/31 00:36:35;;;;;;;5.53;4.90;;;;;;;11.97;100.00;98511.00;5029015;28;20200;-80
2022/12/31 00:39:08;;;;;;;5.17;4.03;;;;;;;11.95;100.00;98523.53;5089439;28;20229;-80
2022/12/31 00:41:38;;;;;;;4.80;3.37;;;;;;;12.03;100.00;98532.56;5090788;28;20237;-80
2022/12/31 00:44:11;;;;;;;3.33;3.03;;;;;;;12.08;100.00;98534.88;5090679;28;20192;-80
2022/12/31 00:46:39;;;;;;;3.60;3.03;;;;;;;12.08;100.00;98531.38;5090718;28;20206;-80
2022/12/31 00:49:09;;;;;;;2.60;2.10;;;;;;;12.11;100.00;98526.66;5092805;28;20660;-80
2022/12/31 00:51:42;;;;;;;2.23;1.90;;;;;;;12.19;100.00;98520.72;5088894;28;20187;-80
2022/12/31 00:54:11;;;;;;;3.50;2.00;;;;;;;12.26;100.00;98517.47;5087183;28;20184;-80
2022/12/31 00:56:39;;;;;;;2.00;1.77;;;;;;;12.24;100.00;98521.19;5086871;28;20200;-80
2022/12/31 00:59:07;;;;;;;3.87;1.90;;;;;;;12.22;100.00;98510.69;5082993;28;20367;-80
2022/12/31 01:01:38;;;;;;;2.53;2.07;;;;;;;12.35;100.00;98504.38;5090351;28;20665;-80
2022/12/31 01:04:09;;;;;;;2.20;1.60;;;;;;;12.29;100.00;98495.97;5088667;28;20282;-80
2022/12/31 01:06:41;;;;;;;2.47;2.00;;;;;;;12.32;100.00;98508.97;5086067;28;20292;-80
2022/12/31 01:09:12;;;;;;;3.13;2.00;;;;;;;12.42;100.00;98518.84;5088328;28;20199;-80
2022/12/31 01:11:40;;;;;;;2.27;1.87;;;;;;;12.35;100.00;98518.50;5088648;28;20188;-80
2022/12/31 01:14:10;;;;;;;2.00;1.80;;;;;;;12.39;100.00;98512.00;5090216;28;20199;-80
2022/12/31 01:16:41;;;;;;;2.03;1.80;;;;;;;12.46;100.00;98515.84;5092935;28;20204;-80
2022/12/31 01:19:14;;;;;;;2.20;1.63;;;;;;;12.54;100.00;98528.47;5093181;28;20211;-80
2022/12/31 01:21:44;;;;;;;2.00;1.60;;;;;;;12.59;100.00;98513.84;5089886;28;20241;-80
2022/12/31 01:24:15;;;;;;;3.30;1.60;;;;;;;12.66;100.00;98518.66;5009165;28;20273;-79
2022/12/31 01:26:44;;;;;;;1.60;1.50;;;;;;;12.60;100.00;98520.84;5005566;28;20229;-79
2022/12/31 01:29:13;;;;;;;1.33;1.23;;;;;;;12.69;100.00;98526.38;5010590;28;20190;-80
2022/12/31 01:31:43;;;;;;;2.37;1.60;;;;;;;12.75;100.00;98528.53;5000158;28;20241;-80
2022/12/31 01:34:11;;;;;;;1.30;1.13;;;;;;;12.82;100.00;98537.66;5005315;28;20205;-80
2022/12/31 01:36:40;;;;;;;1.83;1.17;;;;;;;12.85;100.00;98518.81;5007140;28;20191;-80
2022/12/31 01:39:09;;;;;;;1.73;0.93;;;;;;;12.87;100.00;98501.75;5007821;28;20222;-80
2022/12/31 01:41:44;;;;;;;1.77;0.97;;;;;;;12.82;100.00;98513.72;5028284;28;20270;-80
2022/12/31 01:44:52;;;;;;;1.20;1.10;;;;;;;12.90;100.00;98509.47;5085405;28;20205;-80
2022/12/31 01:47:33;;;;;;;1.20;1.10;;;;;;;12.96;100.00;98515.25;5095409;28;20270;-80
2022/12/31 01:50:10;;;;;;;0.80;0.80;;;;;;;12.97;100.00;98532.88;5099360;28;20257;-80
2022/12/31 01:52:43;;;;;;;1.00;0.90;;;;;;;13.03;100.00;98527.06;5090527;28;20199;-80
2022/12/31 01:55:17;;;;;;;1.30;1.13;;;;;;;13.09;100.00;98511.41;5091924;28;20195;-80
2022/12/31 01:57:53;;;;;;;1.10;0.90;;;;;;;13.08;100.00;98501.75;5094986;28;20221;-80
2022/12/31 02:00:21;;;;;;;0.80;0.80;;;;;;;13.03;100.00;98519.94;5092629;28;20657;-80
2022/12/31 02:02:50;;;;;;;1.77;0.80;;;;;;;13.06;100.00;98503.72;5012360;28;20202;-80
2022/12/31 02:05:27;;;;;;;0.90;0.80;;;;;;;13.15;100.00;98500.28;5009083;28;20708;-80
2022/12/31 02:07:57;;;;;;;1.10;1.00;;;;;;;13.11;100.00;98490.00;5008803;28;20293;-80
2022/12/31 02:10:27;;;;;;;1.03;0.93;;;;;;;13.15;100.00;98497.63;5012988;28;20210;-80
2022/12/31 02:12:57;;;;;;;1.30;0.87;;;;;;;13.19;100.00;98492.91;5010926;28;20206;-80
2022/12/31 02:15:43;;;;;;;1.93;0.80;;;;;;;13.31;100.00;98496.31;5006019;28;20205;-80
2022/12/31 02:18:24;;;;;;;1.93;0.80;;;;;;;13.31;100.00;98489.19;5009509;28;20297;-80
2022/12/31 02:21:36;;;;;;;0.90;0.70;;;;;;;13.29;100.00;98490.28;5013297;28;20638;-80
2022/12/31 02:24:53;;;;;;;2.63;0.70;;;;;;;13.38;100.00;98470.88;5009577;28;20201;-80
2022/12/31 02:27:34;;;;;;;1.17;0.80;;;;;;;13.48;100.00;98461.13;5040071;28;20203;-79
2022/12/31 02:30:12;;;;;;;0.83;0.80;;;;;;;13.39;100.00;98476.06;5088198;28;20200;-80
2022/12/31 02:33:08;;;;;;;0.60;0.60;;;;;;;13.39;100.00;98468.09;5089660;28;20275;-80
2022/12/31 02:35:47;;;;;;;0.70;0.67;;;;;;;13.44;100.00;98478.34;5088746;28;20200;-80
2022/12/31 02:38:19;;;;;;;1.20;0.50;;;;;;;13.52;100.00;98443.94;5093718;28;20229;-79
2022/12/31 02:40:50;;;;;;;1.00;0.60;;;;;;;13.58;100.00;98463.84;5091931;28;20187;-80
2022/12/31 02:43:19;;;;;;;0.60;0.60;;;;;;;13.51;100.00;98465.34;5046018;28;20184;-80
2022/12/31 02:46:06;;;;;;;0.50;0.50;;;;;;;13.63;100.00;98478.44;5090003;28;20192;-80
2022/12/31 02:48:44;;;;;;;0.97;0.50;;;;;;;13.59;100.00;98489.47;5011549;28;20227;-80
2022/12/31 02:51:34;;;;;;;1.23;0.60;;;;;;;13.59;100.00;98484.97;5006672;28;20229;-80
2022/12/31 02:54:19;;;;;;;0.43;0.43;;;;;;;13.69;100.00;98477.88;5011314;28;20202;-79
2022/12/31 02:56:55;;;;;;;0.77;0.63;;;;;;;13.81;100.00;98478.63;5007415;28;20199;-80
2022/12/31 03:02:20;;;;;;;0.50;0.50;;;;;;;13.85;100.00;98468.56;5012363;28;20198;-80
2022/12/31 03:04:52;;;;;;;0.70;0.40;;;;;;;13.83;100.00;98458.03;5010127;28;20226;-80
2022/12/31 03:07:22;;;;;;;0.50;0.50;;;;;;;13.74;100.00;98461.53;5068774;28;20699;-80
2022/12/31 03:09:51;;;;;;;0.90;0.60;;;;;;;13.71;100.00;98449.34;5097840;27;20196;-80
2022/12/31 03:15:18;;;;;;;0.57;0.50;;;;;;;13.74;100.00;98449.06;5094369;28;20238;-80
2022/12/31 03:18:03;;;;;;;0.43;0.43;;;;;;;13.75;100.00;98450.72;5091181;28;20278;-80
2022/12/31 03:23:26;;;;;;;1.47;0.60;;;;;;;13.82;100.00;98475.00;5092693;28;20248;-80
2022/12/31 03:25:55;;;;;;;0.70;0.60;;;;;;;13.79;100.00;98467.25;5092766;28;20192;-79
2022/12/31 03:28:27;;;;;;;0.93;0.50;;;;;;;13.83;100.00;98474.03;5053126;28;20205;-80
2022/12/31 03:30:58;;;;;;;0.40;0.40;;;;;;;13.77;100.00;98487.84;5048101;28;20254;-81
2022/12/31 03:33:31;;;;;;;0.80;0.50;;;;;;;13.88;100.00;98482.41;5046833;28;20239;-80
2022/12/31 03:35:59;;;;;;;0.50;0.50;;;;;;;13.92;100.00;98477.69;5047464;28;20203;-80
2022/12/31 03:38:28;;;;;;;0.40;0.40;;;;;;;13.80;100.00;98468.09;5018738;28;20274;-80
2022/12/31 03:40:56;;;;;;;1.40;0.43;;;;;;;13.97;100.00;98475.44;5048633;28;20255;-80
2022/12/31 03:43:28;;;;;;;0.50;0.50;;;;;;;14.07;100.00;98475.47;5050353;28;20205;-80
2022/12/31 03:46:00;;;;;;;0.93;0.60;;;;;;;13.99;100.00;98484.13;5052365;28;20192;-80
2022/12/31 03:48:31;;;;;;;0.60;0.60;;;;;;;14.01;100.00;98480.38;5088695;28;20234;-80
2022/12/31 03:50:59;;;;;;;1.43;0.50;;;;;;;13.89;100.00;98480.59;5086282;28;20279;-80
2022/12/31 03:53:30;;;;;;;0.67;0.60;;;;;;;14.00;100.00;98467.19;5086922;28;20237;-80
2022/12/31 03:56:00;;;;;;;1.07;0.60;;;;;;;13.97;100.00;98475.44;5090189;28;20204;-80
2022/12/31 03:58:29;;;;;;;1.00;0.60;;;;;;;13.94;100.00;98489.88;5092738;28;20199;-80
2022/12/31 04:00:57;;;;;;;0.70;0.70;;;;;;;14.01;100.00;98477.72;5084590;28;20268;-80
2022/12/31 04:03:28;;;;;;;0.77;0.57;;;;;;;14.08;100.00;98490.47;5083461;28;20199;-80
2022/12/31 04:06:00;;;;;;;0.60;0.60;;;;;;;13.96;100.00;98490.56;5089712;28;20191;-80
2022/12/31 04:08:28;;;;;;;0.80;0.60;;;;;;;14.03;100.00;98481.06;5084062;28;20211;-80
2022/12/31 04:10:57;;;;;;;4.07;0.83;;;;;;;14.02;100.00;98489.19;5084082;28;20196;-80
2022/12/31 04:13:25;;;;;;;1.50;0.63;;;;;;;14.06;100.00;98487.94;5084985;28;20199;-80
2022/12/31 04:15:54;;;;;;;1.30;0.60;;;;;;;14.07;100.00;98486.97;5092835;28;20199;-80
2022/12/31 04:18:24;;;;;;;0.87;0.80;;;;;;;14.08;100.00;98480.66;5090374;28;20192;-80
2022/12/31 04:20:53;;;;;;;1.57;0.77;;;;;;;14.15;100.00;98489.78;5086239;28;20215;-80
2022/12/31 04:23:25;;;;;;;0.93;0.63;;;;;;;14.13;100.00;98483.75;5040012;28;20203;-80
2022/12/31 04:25:54;;;;;;;1.77;0.60;;;;;;;14.10;100.00;98483.19;5095284;28;20199;-80
2022/12/31 04:28:22;;;;;;;0.60;0.60;;;;;;;14.07;100.00;98497.59;5083182;28;20200;-80
2022/12/31 04:30:51;;;;;;;0.80;0.70;;;;;;;14.09;100.00;98493.00;5086329;28;20203;-81
2022/12/31 04:33:23;;;;;;;0.80;0.70;;;;;;;14.12;100.00;98507.88;5089080;28;20192;-80
2022/12/31 04:35:52;;;;;;;0.67;0.60;;;;;;;14.09;100.00;98493.00;5091057;28;20198;-80
2022/12/31 04:38:22;;;;;;;0.90;0.70;;;;;;;14.16;100.00;98512.78;5081097;28;20223;-80
2022/12/31 04:43:36;;;;;;;0.70;0.70;;;;;;;14.21;100.00;98513.22;5077194;28;20199;-80
2022/12/31 04:46:06;;;;;;;1.00;0.80;;;;;;;14.25;100.00;98501.28;5087498;28;20332;-80
2022/12/31 04:48:37;;;;;;;1.23;0.80;;;;;;;14.22;100.00;98504.25;5092355;28;20192;-80
2022/12/31 04:51:07;;;;;;;1.43;0.77;;;;;;;14.24;100.00;98509.44;5088268;28;20200;-81
2022/12/31 04:53:37;;;;;;;0.80;0.80;;;;;;;14.27;100.00;98499.34;5084451;28;20204;-80
2022/12/31 04:56:09;;;;;;;0.70;0.70;;;;;;;14.27;100.00;98499.34;5090147;28;20248;-80
2022/12/31 04:58:39;;;;;;;0.90;0.70;;;;;;;14.24;100.00;98488.13;5088862;28;20257;-80
2022/12/31 05:01:09;;;;;;;1.13;0.80;;;;;;;14.27;100.00;98494.00;5082631;28;20227;-81
2022/12/31 05:03:38;;;;;;;0.80;0.80;;;;;;;14.10;100.00;98496.53;5094013;28;20203;-80
2022/12/31 05:06:08;;;;;;;2.30;0.83;;;;;;;14.11;100.00;98480.41;5095832;27;20195;-80
2022/12/31 05:08:39;;;;;;;2.30;0.90;;;;;;;14.11;100.00;98487.53;5090506;28;20199;-80
2022/12/31 05:11:08;;;;;;;1.80;0.80;;;;;;;14.20;100.00;98495.56;5088444;28;20199;-79
2022/12/31 05:13:37;;;;;;;2.10;0.87;;;;;;;14.20;100.00;98487.56;5089418;28;20241;-80
2022/12/31 05:16:06;;;;;;;0.80;0.70;;;;;;;14.17;100.00;98500.28;5090628;28;20237;-80
2022/12/31 05:18:35;;;;;;;1.87;0.90;;;;;;;14.23;100.00;98499.75;5089810;28;20226;-80
2022/12/31 05:21:04;;;;;;;1.30;0.73;;;;;;;14.30;100.00;98496.41;5095090;28;20211;-80
2022/12/31 05:23:32;;;;;;;2.27;0.80;;;;;;;14.43;100.00;98503.28;5094169;28;20203;-80
2022/12/31 05:26:02;;;;;;;1.87;0.70;;;;;;;14.55;100.00;98499.53;5097052;28;20391;-80
2022/12/31 05:28:34;;;;;;;0.80;0.60;;;;;;;14.65;100.00;98516.38;5092983;28;20248;-79
2022/12/31 05:31:02;;;;;;;1.57;0.90;;;;;;;14.73;100.00;98508.53;5089855;28;20204;-80
2022/12/31 05:33:31;;;;;;;0.67;0.60;;;;;;;14.70;100.00;98515.97;5096917;28;20192;-80
2022/12/31 05:35:59;;;;;;;0.80;0.70;;;;;;;14.68;100.00;98494.78;5089653;28;20239;-80
2022/12/31 05:38:27;;;;;;;1.30;0.80;;;;;;;14.62;100.00;98516.66;5095597;28;20242;-80
2022/12/31 05:41:02;;;;;;;1.93;1.00;;;;;;;14.47;100.00;98508.22;5093029;28;20211;-80
2022/12/31 05:43:31;;;;;;;2.33;0.97;;;;;;;14.50;100.00;98507.13;5089819;28;20200;-80
2022/12/31 05:46:01;;;;;;;1.53;1.00;;;;;;;14.37;100.00;98512.66;5096062;28;20188;-81
2022/12/31 05:48:30;;;;;;;1.97;1.00;;;;;;;14.36;100.00;98513.66;5092915;28;20196;-80
2022/12/31 05:50:59;;;;;;;2.40;1.00;;;;;;;14.39;100.00;98515.22;5094971;28;20192;-80
2022/12/31 05:53:27;;;;;;;2.17;0.90;;;;;;;14.43;100.00;98525.44;5089108;28;20188;-80
2022/12/31 05:55:56;;;;;;;2.57;1.00;;;;;;;14.46;100.00;98535.84;5090910;28;20188;-80
2022/12/31 05:58:26;;;;;;;3.17;1.03;;;;;;;14.48;100.00;98533.91;5094117;28;20719;-80
2022/12/31 06:00:55;;;;;;;0.90;0.80;;;;;;;14.55;100.00;98537.69;5090617;28;20215;-80
2022/12/31 06:03:24;;;;;;;2.00;1.00;;;;;;;14.59;100.00;98539.13;5091124;28;20194;-80
2022/12/31 06:05:54;;;;;;;2.73;0.97;;;;;;;14.52;100.00;98540.63;5093220;28;20257;-80
2022/12/31 06:08:23;;;;;;;0.90;0.80;;;;;;;14.54;100.00;98549.34;5087441;28;20191;-80
2022/12/31 06:10:51;;;;;;;2.23;1.10;;;;;;;14.48;100.00;98552.56;5092215;28;20191;-80
2022/12/31 06:13:20;;;;;;;3.37;1.17;;;;;;;14.44;100.00;98553.78;5089921;28;20204;-80
2022/12/31 06:15:50;;;;;;;1.10;1.00;;;;;;;14.45;100.00;98562.63;5032969;28;20202;-80
2022/12/31 06:18:19;;;;;;;1.90;1.10;;;;;;;14.43;100.00;98551.25;5033275;28;20204;-80
2022/12/31 06:20:48;;;;;;;2.33;1.10;;;;;;;14.40;100.00;98555.03;4998071;28;20244;-80
2022/12/31 06:23:16;;;;;;;1.53;0.93;;;;;;;14.40;100.00;98560.38;5020787;28;20264;-80
2022/12/31 06:25:44;;;;;;;1.23;1.00;;;;;;;14.44;100.00;98561.75;5027444;28;20204;-80
2022/12/31 06:28:13;;;;;;;2.00;1.33;;;;;;;14.44;100.00;98558.25;5030538;28;20247;-80
2022/12/31 06:30:47;;;;;;;1.90;1.37;;;;;;;14.41;100.00;98566.53;5028953;28;20620;-80
2022/12/31 06:33:17;;;;;;;2.27;1.20;;;;;;;14.51;100.00;98570.09;5019227;28;20227;-80
2022/12/31 06:35:46;;;;;;;4.27;1.40;;;;;;;14.56;100.00;98563.34;5008007;28;20680;-80
2022/12/31 06:38:14;;;;;;;2.50;1.20;;;;;;;14.62;100.00;98569.13;5007902;28;20240;-80
2022/12/31 06:40:43;;;;;;;1.73;0.80;;;;;;;14.69;100.00;98559.59;4967804;28;20243;-80
2022/12/31 06:43:11;;;;;;;1.60;1.00;;;;;;;14.79;100.00;98566.63;4991192;28;20219;-80
2022/12/31 06:45:39;;;;;;;2.70;1.13;;;;;;;14.77;100.00;98568.59;4989353;28;20203;-81
2022/12/31 06:48:08;;;;;;;5.50;1.23;;;;;;;14.76;100.00;98563.38;4994159;28;20689;-80
2022/12/31 06:50:39;;;;;;;1.83;0.90;;;;;;;14.77;100.00;98573.09;4994662;28;20261;-80
2022/12/31 06:53:08;;;;;;;0.93;0.83;;;;;;;14.98;100.00;98571.13;4990757;28;20729;-80
2022/12/31 06:55:37;;;;;;;1.93;1.10;;;;;;;14.88;100.00;98575.63;4990783;28;20201;-80
2022/12/31 06:58:05;;;;;;;1.40;0.90;;;;;;;14.89;100.00;98571.97;4986751;28;20200;-80
2022/12/31 07:00:36;;;;;;;5.57;1.60;;;;;;;14.96;100.00;98569.56;5066635;28;20197;-80
2022/12/31 07:03:17;;;;;;;1.60;1.20;;;;;;;15.01;100.00;98575.31;5056014;28;20744;-80
2022/12/31 07:05:51;;;;;;;3.07;1.70;;;;;;;15.05;100.00;98580.22;5028506;28;20221;-81
2022/12/31 07:08:38;;;;;;;3.70;1.30;;;;;;;15.12;100.00;98564.50;5031081;28;20200;-80
2022/12/31 07:11:15;;;;;;;2.73;1.30;;;;;;;15.11;100.00;98568.16;5011870;28;20276;-80
2022/12/31 07:13:57;;;;;;;2.63;1.27;;;;;;;15.06;100.00;98565.09;5008210;28;20198;-80
2022/12/31 07:16:39;;;;;;;4.70;1.93;;;;;;;15.20;100.00;98569.16;4932044;29;20237;-80
2022/12/31 07:19:17;;;;;;;3.17;1.50;;;;;;;15.22;100.00;98589.34;4926975;29;20209;-80
2022/12/31 07:21:49;;;;;;;5.67;1.30;;;;;;;15.24;100.00;98599.88;4931129;29;20259;-80
2022/12/31 07:24:18;;;;;;;2.83;1.43;;;;;;;15.38;100.00;98594.13;4953876;28;20192;-80
2022/12/31 07:27:01;;;;;;;3.03;1.50;;;;;;;15.48;100.00;98599.44;4970657;28;20238;-80
2022/12/31 07:29:47;;;;;;;4.03;1.37;;;;;;;15.66;100.00;98609.28;4980012;28;20286;-80
2022/12/31 07:32:33;;;;;;;2.60;1.50;;;;;;;15.71;100.00;98632.88;4982968;28;20204;-80
2022/12/31 07:35:08;;;;;;;1.53;0.90;;;;;;;15.85;100.00;98595.03;4986306;28;20191;-80
2022/12/31 07:37:47;;;;;;;2.57;1.20;;;;;;;15.85;100.00;98592.38;4988728;28;20253;-80
2022/12/31 07:40:22;;;;;;;4.03;1.67;;;;;;;15.85;100.00;98594.19;4993468;28;20225;-81
2022/12/31 07:43:09;;;;;;;3.33;1.67;;;;;;;15.55;100.00;98598.75;5051586;28;20247;-80
2022/12/31 07:45:47;;;;;;;3.47;1.40;;;;;;;15.54;100.00;98597.06;5049546;28;20193;-80
2022/12/31 07:48:23;;;;;;;3.63;1.60;;;;;;;15.42;100.00;98587.50;5062463;28;20192;-80
2022/12/31 07:50:54;;;;;;;3.67;1.20;;;;;;;15.28;100.00;98607.47;5068745;28;20200;-80
2022/12/31 07:53:26;;;;;;;1.17;0.90;;;;;;;15.31;100.00;98599.19;5069282;28;20196;-80
2022/12/31 07:55:57;;;;;;;4.40;1.30;;;;;;;15.31;100.00;98612.53;5075695;28;20192;-80
2022/12/31 07:58:37;;;;;;;4.43;1.40;;;;;;;15.44;100.00;98602.41;5067687;28;20242;-80
2022/12/31 08:01:09;;;;;;;3.50;1.20;;;;;;;15.48;100.00;98634.16;5074564;28;20238;-80
2022/12/31 08:03:51;;;;;;;2.07;1.10;;;;;;;15.64;100.00;98634.47;5068012;28;20208;-80
2022/12/31 08:06:30;;;;;;;1.80;1.10;;;;;;;15.57;100.00;98628.81;5068396;28;20200;-80
2022/12/31 08:09:14;;;;;;;1.63;1.13;;;;;;;15.53;100.00;98637.22;5071994;28;20262;-80
2022/12/31 08:11:49;;;;;;;2.93;1.13;;;;;;;15.42;100.00;98644.41;5072176;28;20189;-79
2022/12/31 08:14:21;;;;;;;3.80;1.10;;;;;;;15.27;100.00;98643.16;5073806;28;20275;-80
2022/12/31 08:16:50;;;;;;;3.53;1.10;;;;;;;15.09;100.00;98637.66;5073698;28;20227;-79
2022/12/31 08:19:25;;;;;;;1.10;1.00;;;;;;;15.22;100.00;98645.38;5071307;28;20200;-80
2022/12/31 08:22:10;;;;;;;2.20;1.37;;;;;;;15.11;100.00;98650.84;5072342;28;20212;-80
2022/12/31 08:24:52;;;;;;;3.13;1.30;;;;;;;15.05;100.00;98654.06;5073628;28;20188;-80
2022/12/31 08:27:31;;;;;;;2.97;1.17;;;;;;;15.05;100.00;98656.75;5065078;28;20265;-80
2022/12/31 08:30:07;;;;;;;2.67;1.30;;;;;;;15.03;100.00;98653.38;5067489;28;20202;-80
2022/12/31 08:32:45;;;;;;;1.47;1.37;;;;;;;15.04;100.00;98679.91;5070250;28;20219;-80
2022/12/31 08:35:31;;;;;;;2.13;1.37;;;;;;;15.07;100.00;98652.13;5069823;28;20200;-80
2022/12/31 08:38:07;;;;;;;3.03;1.20;;;;;;;15.07;100.00;98662.81;5005867;28;20198;-80
2022/12/31 08:40:48;;;;;;;2.57;1.40;;;;;;;14.98;100.00;98679.63;4949775;28;20666;-80
2022/12/31 08:43:31;;;;;;;4.23;2.10;;;;;;;15.09;100.00;98663.50;4910781;29;20217;-80
2022/12/31 08:46:00;;;;;;;2.07;1.80;;;;;;;15.09;100.00;98672.34;4907556;29;20197;-81
2022/12/31 08:48:37;;;;;;;1.93;1.57;;;;;;;15.07;100.00;98668.97;4906863;29;20212;-80
2022/12/31 08:51:09;;;;;;;3.17;1.40;;;;;;;15.04;100.00;98649.72;4908413;29;20205;-80
2022/12/31 08:53:41;;;;;;;2.83;1.80;;;;;;;14.96;100.00;98662.91;4908219;29;20206;-80
2022/12/31 08:56:24;;;;;;;2.97;1.53;;;;;;;15.03;100.00;98661.38;4939205;28;20196;-80
2022/12/31 08:59:06;;;;;;;3.27;1.60;;;;;;;14.93;100.00;98669.34;5000565;28;20201;-80
2022/12/31 09:01:48;;;;;;;2.80;1.53;;;;;;;15.00;100.00;98675.84;5068790;28;20226;-80
2022/12/31 09:04:25;;;;;;;4.03;1.63;;;;;;;15.02;100.00;98670.34;5069713;28;20207;-80
2022/12/31 09:06:58;;;;;;;2.37;1.40;;;;;;;15.02;100.00;98675.69;5069388;28;20204;-80
2022/12/31 09:09:40;;;;;;;4.47;1.40;;;;;;;14.93;100.00;98696.03;5067157;28;20192;-80
2022/12/31 09:12:18;;;;;;;3.67;1.30;;;;;;;14.98;100.00;98671.63;5068473;28;20237;-80
2022/12/31 09:14:54;;;;;;;3.20;1.50;;;;;;;14.96;100.00;98687.78;5070141;28;20273;-80
2022/12/31 09:17:44;;;;;;;4.43;1.30;;;;;;;15.02;100.00;98689.03;5067265;28;20199;-80
2022/12/31 09:20:20;;;;;;;1.77;1.27;;;;;;;15.02;100.00;98679.22;5031495;28;20197;-80
2022/12/31 09:22:49;;;;;;;4.60;1.77;;;;;;;14.98;100.00;98692.97;5023029;28;20213;-80
2022/12/31 09:25:21;;;;;;;9.93;4.83;;;;;;;15.02;100.00;98697.03;5024540;28;20201;-80
2022/12/31 09:28:07;;;;;;;2.90;1.80;;;;;;;15.05;100.00;98689.59;5027663;28;20224;-80
2022/12/31 09:30:46;;;;;;;6.57;3.43;;;;;;;14.98;100.00;98704.47;5025809;28;20209;-80
2022/12/31 09:33:28;;;;;;;3.87;2.00;;;;;;;14.96;100.00;98705.56;5025421;28;20197;-80
2022/12/31 09:36:00;;;;;;;4.17;1.30;;;;;;;14.99;100.00;98711.50;4966160;28;20212;-80
2022/12/31 09:38:35;;;;;;;3.10;1.30;;;;;;;15.12;100.00;98713.91;4988116;28;20266;-80
2022/12/31 09:41:15;;;;;;;5.27;3.33;;;;;;;15.12;100.00;98720.06;5010188;28;20200;-80
2022/12/31 09:44:31;;;;;;;2.10;1.30;;;;;;;15.03;100.00;98704.88;4999244;28;20732;-80
2022/12/31 09:47:49;;;;;;;2.87;1.30;;;;;;;15.06;100.00;98720.66;5006967;28;20234;-80
2022/12/31 09:50:42;;;;;;;2.33;1.20;;;;;;;15.21;100.00;98707.72;4983680;28;20237;-80
2022/12/31 09:53:38;;;;;;;3.17;1.57;;;;;;;15.23;100.00;98723.59;5009205;28;20266;-81
2022/12/31 09:56:15;;;;;;;3.20;1.53;;;;;;;15.22;100.00;98713.91;5034166;28;20200;-80
2022/12/31 09:58:57;;;;;;;3.50;1.20;;;;;;;15.28;100.00;98706.19;5010694;28;20363;-80
2022/12/31 10:01:50;;;;;;;3.53;1.40;;;;;;;15.24;100.00;98712.78;5006890;28;20254;-81
2022/12/31 10:04:52;;;;;;;1.30;1.00;;;;;;;15.40;100.00;98717.59;5011896;28;20218;-80
2022/12/31 10:07:33;;;;;;;2.70;1.30;;;;;;;15.41;100.00;98721.94;5008107;28;20627;-80
2022/12/31 10:10:13;;;;;;;2.10;1.73;;;;;;;15.42;100.00;98718.28;5010286;28;20194;-80
2022/12/31 10:13:08;;;;;;;1.67;0.97;;;;;;;15.42;100.00;98721.78;5006117;28;20198;-80
2022/12/31 10:16:15;;;;;;;1.90;1.03;;;;;;;15.49;100.00;98722.09;5011659;28;20225;-81
2022/12/31 10:19:07;;;;;;;2.27;1.10;;;;;;;15.62;100.00;98732.50;5069296;28;20275;-80
2022/12/31 10:21:51;;;;;;;3.10;1.20;;;;;;;15.47;100.00;98740.06;5072329;28;20200;-80
2022/12/31 10:24:42;;;;;;;2.73;1.20;;;;;;;15.70;100.00;98729.97;5070800;28;20295;-80
2022/12/31 10:27:45;;;;;;;2.27;1.10;;;;;;;15.78;100.00;98721.28;5070516;28;20654;-80
2022/12/31 10:30:19;;;;;;;3.73;1.20;;;;;;;15.94;100.00;98721.53;4993458;28;20351;-80
2022/12/31 10:32:59;;;;;;;5.93;3.10;;;;;;;15.84;100.00;98721.56;4996744;28;20677;-80
2022/12/31 10:35:41;;;;;;;2.80;1.20;;;;;;;16.01;100.00;98723.47;4988390;28;20281;-80
2022/12/31 10:38:24;;;;;;;2.83;0.93;;;;;;;16.18;100.00;98713.88;4984493;28;20195;-80
2022/12/31 10:41:19;;;;;;;1.80;1.00;;;;;;;16.23;100.00;98708.13;4950067;29;20266;-80
2022/12/31 10:44:50;;;;;;;3.60;1.30;;;;;;;16.23;100.00;98711.63;4952330;29;20228;-80
2022/12/31 10:47:51;;;;;;;2.33;1.10;;;;;;;16.24;100.00;98728.50;4894956;29;20213;-80
2022/12/31 10:50:55;;;;;;;3.10;1.30;;;;;;;15.99;100.00;98720.13;4932546;29;20267;-80
2022/12/31 10:53:42;;;;;;;2.90;1.20;;;;;;;16.06;100.00;98730.25;5008944;28;20264;-80
2022/12/31 10:56:45;;;;;;;5.27;1.43;;;;;;;15.87;100.00;98726.59;5008654;28;20198;-80
2022/12/31 11:00:03;;;;;;;3.07;1.17;;;;;;;15.97;100.00;98747.97;5028996;28;20243;-80
2022/12/31 11:03:02;;;;;;;3.20;1.20;;;;;;;16.07;100.00;98738.09;5049572;28;20251;-80
2022/12/31 11:05:50;;;;;;;2.80;1.10;;;;;;;16.19;100.00;98736.94;5044011;28;20201;-81
2022/12/31 11:08:45;;;;;;;1.80;1.10;;;;;;;16.33;100.00;98732.16;5059820;28;20197;-81
2022/12/31 11:11:28;;;;;;;3.63;1.50;;;;;;;16.40;100.00;98741.25;5068192;28;20254;-81
2022/12/31 11:14:35;;;;;;;2.33;1.17;;;;;;;16.41;100.00;98742.97;5071432;28;20204;-80
2022/12/31 11:17:18;;;;;;;4.50;1.37;;;;;;;16.49;100.00;98738.56;5054134;28;20200;-80
2022/12/31 11:19:57;;;;;;;2.03;1.30;;;;;;;16.59;100.00;98744.69;5074828;28;20192;-81
2022/12/31 11:22:43;;;;;;;1.97;1.10;;;;;;;16.59;100.00;98747.38;5068865;28;20203;-80
2022/12/31 11:25:27;;;;;;;2.47;1.27;;;;;;;16.70;100.00;98751.75;5067531;28;20262;-80
2022/12/31 11:28:22;;;;;;;2.07;1.40;;;;;;;16.76;100.00;98734.25;5068305;28;20200;-80
2022/12/31 11:31:09;;;;;;;3.10;1.30;;;;;;;16.85;100.00;98744.91;5073790;28;20644;-81
2022/12/31 11:33:53;;;;;;;4.27;1.10;;;;;;;16.71;100.00;98750.78;5072417;28;20300;-80
2022/12/31 11:36:34;;;;;;;2.57;1.20;;;;;;;16.70;100.00;98738.38;5071520;28;20249;-80
2022/12/31 11:39:23;;;;;;;3.60;1.40;;;;;;;16.52;100.00;98746.31;5072182;28;20223;-80
2022/12/31 11:42:15;;;;;;;2.97;1.40;;;;;;;16.41;100.00;98762.53;5009821;28;20190;-80
2022/12/31 11:44:50;;;;;;;3.97;1.53;;;;;;;16.44;100.00;98740.00;5008642;28;20222;-80
2022/12/31 11:47:40;;;;;;;1.67;1.50;;;;;;;16.20;100.00;98757.34;4947384;28;20251;-81
2022/12/31 11:50:35;;;;;;;3.87;1.80;;;;;;;16.25;100.00;98748.91;4953356;28;20208;-80
2022/12/31 11:53:22;;;;;;;3.40;1.70;;;;;;;16.24;100.00;98753.41;4901607;29;20243;-80
2022/12/31 11:56:07;;;;;;;2.27;1.70;;;;;;;15.93;100.00;98742.06;4946152;28;20766;-80
2022/12/31 11:58:42;;;;;;;2.83;1.77;;;;;;;15.98;100.00;98744.31;4950201;28;20200;-80
2022/12/31 12:01:14;;;;;;;3.00;1.60;;;;;;;15.95;100.00;98739.25;5009946;28;20248;-80
2022/12/31 12:03:42;;;;;;;3.13;1.80;;;;;;;15.79;100.00;98741.66;5005328;28;20238;-80
2022/12/31 12:06:13;;;;;;;4.67;2.07;;;;;;;15.85;100.00;98755.28;5055062;28;20200;-80
2022/12/31 12:08:46;;;;;;;4.37;1.77;;;;;;;15.92;100.00;98740.38;5072259;28;20355;-80
2022/12/31 12:11:20;;;;;;;1.73;1.60;;;;;;;15.83;100.00;98745.75;5073021;28;20691;-80
2022/12/31 12:13:50;;;;;;;4.27;1.77;;;;;;;15.92;100.00;98744.84;5065433;28;20199;-80
2022/12/31 12:16:22;;;;;;;3.77;1.60;;;;;;;15.83;100.00;98743.06;5075241;28;20648;-80
2022/12/31 12:19:02;;;;;;;5.57;1.80;;;;;;;15.96;100.00;98740.94;5071785;28;20207;-80